Terminal Aerodrome Forecast
Issued by NWS Denver/Boulder, CO

Home | Current Version | Previous Version | Text Only | Print | Product List | Glossary On
Versions: 1 2 3 4 5 6 7 8 9 10 11 12 13 14 15 16 17 18 19 20 21 22 23 24 25 26 27 28 29 30 31 32 33 34 35 36 37 38 39 40 41 42 43 44 45 46 47 48 49 50
438
FTUS45 KBOU 081450 AAA
TAFDEN
TAF AMD
KDEN 081450Z 0815/0918 18006KT P6SM SCT150
     FM081700 13004KT P6SM FEW020 SCT200
     FM082000 08007KT P6SM FEW120 BKN200
     FM090100 18009KT P6SM SCT120 BKN200
     FM091000 20008KT P6SM SCT120 BKN200=

USA.gov is the U.S. government's official web portal to all federal, state and local government web resources and services.